Strona główna
METAR-TAF:

METAR-TAF

Lotnisko :

Port lotniczy Bydgoszcz-Szwederowo

Bydgoszcz, Polska

Szerokość geograficzna: 53-05-48N, Długość geograficzna: 017-58-40E, wysokość: 72 m

Aktualna obserwacja pogody

Raport powstał 13 minut temu, godzina 07:00 UTC
Wiatr 7 kt od wschód
Temperatura 18°C
Wilgotność 59%
Ciśnienie 1022 hPa
Widzialność 10 km lub więcej
Brak chmur poniżej 1500 m i brak chmur cumulonimbus

METAR: EPBY 230700Z 09007KT CAVOK 18/10 Q1022

czas: 09:13 (07:13 UTC)

Prognoza

Raport powstał 1 godzina i 43 minut temu, godzina 05:30 UTC
Prognoza ważna od 23 godzina 06 UTC do 24 godzina 06 UTC
Wiatr 3 kt z kierunków zmiennych
Widzialność 10 km lub więcej
Brak chmur poniżej 1500 m i brak chmur cumulonimbus
Stopniowe zmiany
od 23 godzina 10 UTC do 23 godzina 12 UTC
Wiatr 10 kt od wschodnio-północny wschód

TAF: EPBY 230530Z 2306/2406 VRB03KT CAVOK BECMG 2310/2312 06010KT

Obserwacja i prognoza pogody dla ponad 4000 lotnisk (raport METAR i TAF).

Dostępne stacje oznaczono żółtymi i czerwonymi punktami na mapie.

Najedź kursorem aby zobaczyć nazwę stacji.

Kliknij aby zobaczyć obserwacje i prognozy pogody.

Aby zmienić mapę: kliknij na zielony przycisk z czarnym krzyżykiem, aby powiększyć; na zielony przycisk z myślnikiem, aby pomniejszyć; na zielone strzałki, aby przejść do map sąsiednich.


METAR-TAF: